Time;durP1;ratioP1;P1;durP2;ratioP2;P2;SDS_P1;SDS_P2;PMS_P1;PMS_P2;Temp;Humidity;BMP_temperature;BMP_pressure;BME280_temperature;BME280_humidity;BME280_pressure;Samples;Min_cycle;Max_cycle;Signal;HPM_P1;HPM_P2
2022/10/23 00:02:12;;;;;;;;;;;;;;;14.13;67.00;95583.78;4910510;28;20020;-65
2022/10/23 00:04:37;;;;;;;;;;;;;;;14.11;67.04;95587.88;4910601;28;20016;-66
2022/10/23 00:07:02;;;;;;;;;;;;;;;14.07;67.28;95590.38;4909952;28;20184;-66
2022/10/23 00:09:28;;;;;;;;;;;;;;;14.03;67.07;95579.53;4909712;28;20020;-66
2022/10/23 00:11:53;;;;;;;;;;;;;;;14.00;67.30;95590.06;4910442;28;20019;-67
2022/10/23 00:14:20;;;;;;;;;;;;;;;13.97;67.29;95593.34;4913721;28;20062;-66
2022/10/23 00:16:45;;;;;;;;;;;;;;;13.95;67.54;95591.00;4912568;28;20011;-66
2022/10/23 00:19:10;;;;;;;;;;;;;;;13.90;67.22;95585.03;4913663;28;20019;-66
2022/10/23 00:21:36;;;;;;;;;;;;;;;13.89;67.74;95583.47;4913552;28;20114;-66
2022/10/23 00:24:01;;;;;;;;;;;;;;;13.87;67.77;95589.13;4913577;28;20012;-65
2022/10/23 00:26:26;;;;;;;;;;;;;;;13.85;67.78;95585.97;4913564;28;20051;-66
2022/10/23 00:28:52;;;;;;;;;;;;;;;13.83;67.87;95576.69;4913624;28;20066;-66
2022/10/23 00:31:18;;;;;;;;;;;;;;;13.79;67.69;95581.88;4913326;28;20366;-66
2022/10/23 00:33:44;;;;;;;;;;;;;;;13.76;67.53;95574.47;4913775;28;20019;-66
2022/10/23 00:36:10;;;;;;;;;;;;;;;13.73;67.74;95575.09;4913181;28;20055;-66
2022/10/23 00:38:36;;;;;;;;;;;;;;;13.70;68.12;95578.41;4914877;28;20027;-65
2022/10/23 00:41:02;;;;;;;;;;;;;;;13.69;68.05;95574.16;4913028;28;20112;-66
2022/10/23 00:43:29;;;;;;;;;;;;;;;13.66;67.71;95574.78;4913289;28;20038;-66
2022/10/23 00:45:54;;;;;;;;;;;;;;;13.66;68.11;95569.41;4912769;28;20059;-66
2022/10/23 00:48:20;;;;;;;;;;;;;;;13.66;68.06;95577.44;4914273;28;20024;-66
2022/10/23 00:50:46;;;;;;;;;;;;;;;13.63;67.92;95580.75;4913657;28;20606;-66
2022/10/23 00:53:11;;;;;;;;;;;;;;;13.60;67.80;95570.69;4913072;28;20019;-66
2022/10/23 00:55:37;;;;;;;;;;;;;;;13.59;67.74;95585.16;4912525;28;20016;-66
2022/10/23 00:58:03;;;;;;;;;;;;;;;13.55;67.87;95584.19;4912916;28;20020;-66
2022/10/23 01:00:48;;;;;;;;;;;;;;;13.51;67.64;95579.47;4913298;28;20077;-65
2022/10/23 01:03:14;;;;;;;;;;;;;;;13.44;67.66;95584.47;4912966;28;20103;-66
2022/10/23 01:06:00;;;;;;;;;;;;;;;13.43;67.90;95577.56;4912468;28;20433;-66
2022/10/23 01:08:33;;;;;;;;;;;;;;;13.41;67.78;95579.78;4951506;28;20488;-66
2022/10/23 01:11:04;;;;;;;;;;;;;;;13.42;68.11;95580.56;4912754;28;20070;-65
2022/10/23 01:13:36;;;;;;;;;;;;;;;13.41;68.02;95578.97;4912217;28;20047;-66
2022/10/23 01:16:07;;;;;;;;;;;;;;;13.38;68.23;95572.38;4912264;28;20016;-66
2022/10/23 01:18:40;;;;;;;;;;;;;;;13.35;68.14;95570.31;4912868;28;20376;-66
2022/10/23 01:21:38;;;;;;;;;;;;;;;13.34;68.33;95562.59;4912167;28;20020;-66
2022/10/23 01:24:11;;;;;;;;;;;;;;;13.32;68.32;95559.47;4899063;28;20022;-65
2022/10/23 01:26:53;;;;;;;;;;;;;;;13.30;68.16;95558.97;4912300;28;20012;-65
2022/10/23 01:29:40;;;;;;;;;;;;;;;13.25;68.15;95562.56;4914546;28;20020;-65
2022/10/23 01:32:08;;;;;;;;;;;;;;;13.21;68.04;95567.78;4912454;28;20380;-66
2022/10/23 01:34:40;;;;;;;;;;;;;;;13.17;67.97;95566.78;4927102;28;20420;-65
2022/10/23 01:37:08;;;;;;;;;;;;;;;13.14;68.14;95569.28;4912112;28;20012;-65
2022/10/23 01:39:36;;;;;;;;;;;;;;;13.12;67.97;95563.47;4911522;28;20019;-66
2022/10/23 01:42:15;;;;;;;;;;;;;;;13.07;67.93;95563.59;4912352;28;20657;-66
2022/10/23 01:44:43;;;;;;;;;;;;;;;13.02;67.98;95549.28;4912512;28;20022;-66
2022/10/23 01:47:10;;;;;;;;;;;;;;;13.00;68.26;95548.81;4911841;28;20123;-66
2022/10/23 01:49:38;;;;;;;;;;;;;;;13.01;68.38;95549.59;4911969;28;20038;-66
2022/10/23 01:52:05;;;;;;;;;;;;;;;13.00;68.17;95551.50;4912099;28;20016;-66
2022/10/23 01:54:32;;;;;;;;;;;;;;;13.00;68.10;95543.47;4912211;28;20110;-65
2022/10/23 01:56:58;;;;;;;;;;;;;;;12.99;68.39;95539.22;4911592;28;20019;-66
2022/10/23 01:59:25;;;;;;;;;;;;;;;12.97;68.41;95543.31;4916965;28;20015;-66
2022/10/23 02:01:52;;;;;;;;;;;;;;;12.96;68.63;95539.84;4912042;28;20027;-66
2022/10/23 02:04:24;;;;;;;;;;;;;;;12.97;68.56;95538.75;4912035;28;20011;-66
2022/10/23 02:06:49;;;;;;;;;;;;;;;12.96;68.42;95536.38;4911162;28;20016;-66
2022/10/23 02:09:15;;;;;;;;;;;;;;;12.97;68.23;95527.28;4911813;28;20080;-65
2022/10/23 02:11:47;;;;;;;;;;;;;;;12.95;68.44;95524.94;4911894;28;20027;-66
2022/10/23 02:14:18;;;;;;;;;;;;;;;12.95;68.26;95518.81;4911858;28;20023;-66
2022/10/23 02:16:49;;;;;;;;;;;;;;;12.95;68.33;95522.25;4911376;28;20502;-65
2022/10/23 02:19:27;;;;;;;;;;;;;;;12.93;68.13;95524.44;4911701;28;20106;-65
2022/10/23 02:22:03;;;;;;;;;;;;;;;12.92;68.12;95514.84;4911789;28;20031;-66
2022/10/23 02:24:33;;;;;;;;;;;;;;;12.92;68.25;95520.19;4909909;28;20024;-65
2022/10/23 02:27:01;;;;;;;;;;;;;;;12.90;68.12;95519.72;4911136;28;20016;-66
2022/10/23 02:29:26;;;;;;;;;;;;;;;12.90;68.08;95509.03;4910579;28;20048;-65
2022/10/23 02:31:51;;;;;;;;;;;;;;;12.90;67.90;95517.06;4910891;28;20090;-66
2022/10/23 02:34:17;;;;;;;;;;;;;;;12.88;67.84;95507.75;4910944;28;20024;-66
2022/10/23 02:36:42;;;;;;;;;;;;;;;12.85;68.01;95506.50;4911280;28;20468;-65
2022/10/23 02:39:08;;;;;;;;;;;;;;;12.83;67.89;95490.00;4911192;28;20012;-67
2022/10/23 02:41:40;;;;;;;;;;;;;;;12.81;67.72;95497.53;4911396;28;20020;-67
2022/10/23 02:44:05;;;;;;;;;;;;;;;12.80;67.97;95495.19;4911382;28;20012;-67
2022/10/23 02:46:38;;;;;;;;;;;;;;;12.81;67.85;95488.75;4910736;28;20028;-67
2022/10/23 02:49:08;;;;;;;;;;;;;;;12.80;68.14;95489.84;4925435;28;20027;-67
2022/10/23 02:51:48;;;;;;;;;;;;;;;12.80;68.05;95485.28;4911361;28;20012;-68
2022/10/23 02:54:35;;;;;;;;;;;;;;;12.77;68.04;95483.22;4911161;28;20500;-67
2022/10/23 02:57:05;;;;;;;;;;;;;;;12.77;68.20;95483.22;4910892;28;20107;-67
2022/10/23 02:59:41;;;;;;;;;;;;;;;12.77;67.98;95483.22;4910913;28;20020;-67
2022/10/23 03:02:19;;;;;;;;;;;;;;;12.76;67.94;95479.00;4911111;28;20019;-67
2022/10/23 03:04:45;;;;;;;;;;;;;;;12.72;67.86;95478.81;4910910;28;20012;-67
2022/10/23 03:07:14;;;;;;;;;;;;;;;12.72;67.81;95480.69;4911001;28;20392;-67
2022/10/23 03:09:39;;;;;;;;;;;;;;;12.69;67.94;95487.47;4911038;28;20388;-68
2022/10/23 03:12:04;;;;;;;;;;;;;;;12.69;68.04;95483.97;4910751;28;20491;-67
2022/10/23 03:14:30;;;;;;;;;;;;;;;12.67;67.88;95486.97;4910962;28;20037;-68
2022/10/23 03:16:55;;;;;;;;;;;;;;;12.67;67.94;95496.84;4924953;28;20498;-67
2022/10/23 03:19:20;;;;;;;;;;;;;;;12.65;67.96;95485.72;4911113;28;20016;-67
2022/10/23 03:21:45;;;;;;;;;;;;;;;12.63;67.71;95480.66;4910227;28;20051;-67
2022/10/23 03:24:11;;;;;;;;;;;;;;;12.63;67.70;95479.88;4925690;28;20420;-67
2022/10/23 03:26:36;;;;;;;;;;;;;;;12.60;67.41;95469.84;4910567;28;20534;-67
2022/10/23 03:29:01;;;;;;;;;;;;;;;12.57;67.56;95463.22;4910816;28;20047;-67
2022/10/23 03:31:27;;;;;;;;;;;;;;;12.58;67.98;95456.00;4910259;28;20020;-67
2022/10/23 03:33:52;;;;;;;;;;;;;;;12.59;67.92;95453.03;4910980;28;20019;-67
2022/10/23 03:36:17;;;;;;;;;;;;;;;12.59;68.00;95465.56;4910463;28;20484;-65
2022/10/23 03:38:42;;;;;;;;;;;;;;;12.61;67.98;95468.75;4910655;28;20693;-67
2022/10/23 03:41:08;;;;;;;;;;;;;;;12.59;67.88;95466.38;4909972;28;20130;-67
2022/10/23 03:43:33;;;;;;;;;;;;;;;12.61;67.91;95466.06;4911000;28;20527;-67
2022/10/23 03:45:59;;;;;;;;;;;;;;;12.60;68.05;95464.50;4910375;28;20012;-67
2022/10/23 03:48:25;;;;;;;;;;;;;;;12.60;67.97;95459.16;4912696;28;20012;-67
2022/10/23 03:50:50;;;;;;;;;;;;;;;12.58;67.82;95467.47;4913815;28;20047;-67
2022/10/23 03:53:15;;;;;;;;;;;;;;;12.57;67.89;95473.09;4915425;28;20038;-67
2022/10/23 03:55:40;;;;;;;;;;;;;;;12.56;67.72;95469.66;4913532;28;20019;-67
2022/10/23 03:58:06;;;;;;;;;;;;;;;12.54;67.84;95471.84;4913781;28;20008;-68
2022/10/23 04:00:31;;;;;;;;;;;;;;;12.54;67.85;95471.03;4913454;28;20012;-67
2022/10/23 04:02:56;;;;;;;;;;;;;;;12.54;67.91;95463.84;4913479;28;20047;-68
2022/10/23 04:05:21;;;;;;;;;;;;;;;12.58;68.02;95466.66;4913387;28;20484;-68
2022/10/23 04:07:46;;;;;;;;;;;;;;;12.57;67.98;95462.44;4913198;28;20451;-68
2022/10/23 04:10:12;;;;;;;;;;;;;;;12.59;67.82;95463.72;4913746;28;20481;-68
2022/10/23 04:12:37;;;;;;;;;;;;;;;12.65;67.60;95467.03;4912824;28;20484;-68
2022/10/23 04:15:02;;;;;;;;;;;;;;;12.65;67.68;95467.81;4911916;28;20849;-68
2022/10/23 04:17:28;;;;;;;;;;;;;;;12.65;67.47;95470.47;4913592;28;20294;-67
2022/10/23 04:19:53;;;;;;;;;;;;;;;12.67;67.26;95470.94;4913640;28;20011;-66
2022/10/23 04:22:19;;;;;;;;;;;;;;;12.68;67.20;95469.84;4913556;28;20031;-66
2022/10/23 04:24:45;;;;;;;;;;;;;;;12.71;67.38;95455.13;4913467;28;20122;-66
2022/10/23 04:27:11;;;;;;;;;;;;;;;12.72;67.09;95459.34;4913121;28;20018;-66
2022/10/23 04:29:36;;;;;;;;;;;;;;;12.74;67.00;95462.47;4912071;28;20019;-66
2022/10/23 04:32:02;;;;;;;;;;;;;;;12.75;66.91;95461.41;4912567;28;20372;-67
2022/10/23 04:34:27;;;;;;;;;;;;;;;12.74;66.86;95473.16;4927758;28;20016;-67
2022/10/23 04:36:52;;;;;;;;;;;;;;;12.75;66.79;95469.41;4912917;28;20098;-66
2022/10/23 04:39:18;;;;;;;;;;;;;;;12.73;66.78;95463.59;4927475;28;20023;-66
2022/10/23 04:41:43;;;;;;;;;;;;;;;12.72;66.54;95460.13;4913181;28;20122;-68
2022/10/23 04:44:08;;;;;;;;;;;;;;;12.74;66.64;95460.63;4913115;28;20023;-67
2022/10/23 04:46:33;;;;;;;;;;;;;;;12.74;66.78;95454.47;4912769;28;20012;-66
2022/10/23 04:48:58;;;;;;;;;;;;;;;12.75;66.81;95451.53;4912976;28;20023;-66
2022/10/23 04:51:24;;;;;;;;;;;;;;;12.77;66.67;95448.53;4913072;28;20027;-65
2022/10/23 04:53:49;;;;;;;;;;;;;;;12.76;66.61;95449.63;4927076;28;20020;-66
2022/10/23 04:56:14;;;;;;;;;;;;;;;12.78;66.70;95444.75;4912768;28;20099;-66
2022/10/23 04:58:40;;;;;;;;;;;;;;;12.18;66.45;95359.97;4912931;28;20094;-66
2022/10/23 05:01:06;;;;;;;;;;;;;;;12.77;66.52;95448.53;4912730;28;20105;-67
2022/10/23 05:03:31;;;;;;;;;;;;;;;12.77;66.32;95443.19;4912813;28;20456;-67
2022/10/23 05:05:57;;;;;;;;;;;;;;;12.73;66.24;95444.91;4912238;28;20075;-66
2022/10/23 05:08:22;;;;;;;;;;;;;;;12.71;66.41;95444.44;4912885;28;20479;-66
2022/10/23 05:10:48;;;;;;;;;;;;;;;12.70;66.41;95440.19;5031384;22;20025;-68
2022/10/23 05:13:14;;;;;;;;;;;;;;;12.69;66.53;95441.28;5112451;28;20019;-67
2022/10/23 05:15:39;;;;;;;;;;;;;;;12.65;66.33;95435.78;5112047;28;20592;-67
2022/10/23 05:18:10;;;;;;;;;;;;;;;12.63;66.50;95431.84;5093310;28;20016;-67
2022/10/23 05:20:38;;;;;;;;;;;;;;;12.56;66.39;95429.63;5094025;28;20091;-67
2022/10/23 05:23:05;;;;;;;;;;;;;;;12.43;66.52;95433.97;5111752;28;20103;-67
2022/10/23 05:25:30;;;;;;;;;;;;;;;12.51;66.54;95431.66;5093483;28;20013;-67
2022/10/23 05:27:55;;;;;;;;;;;;;;;12.52;66.52;95428.66;5093619;28;20085;-68
2022/10/23 05:30:21;;;;;;;;;;;;;;;12.52;66.66;95426.00;5092538;28;20191;-67
2022/10/23 05:32:46;;;;;;;;;;;;;;;12.51;66.66;95423.66;5093721;28;20103;-68
2022/10/23 05:35:14;;;;;;;;;;;;;;;12.55;66.60;95427.28;5093232;28;20123;-67
2022/10/23 05:37:42;;;;;;;;;;;;;;;12.55;66.46;95429.94;5093592;28;20013;-67
2022/10/23 05:40:07;;;;;;;;;;;;;;;12.54;66.33;95429.16;5092607;28;20548;-67
2022/10/23 05:42:32;;;;;;;;;;;;;;;12.52;66.18;95422.53;5093775;28;20114;-67
2022/10/23 05:44:58;;;;;;;;;;;;;;;12.50;66.40;95417.53;5093009;28;20020;-66
2022/10/23 05:47:23;;;;;;;;;;;;;;;12.49;66.30;95422.09;5093530;28;20024;-67
2022/10/23 05:49:48;;;;;;;;;;;;;;;12.48;66.33;95420.50;5111672;28;20008;-66
2022/10/23 05:52:13;;;;;;;;;;;;;;;12.46;66.19;95430.69;5110755;28;20488;-66
2022/10/23 05:54:38;;;;;;;;;;;;;;;12.46;66.20;95429.91;5111656;28;20479;-67
2022/10/23 05:57:04;;;;;;;;;;;;;;;12.44;66.22;95427.56;5111348;28;20080;-66
2022/10/23 05:59:29;;;;;;;;;;;;;;;12.42;66.12;95420.94;5093019;28;20368;-69
2022/10/23 06:01:54;;;;;;;;;;;;;;;12.43;66.08;95427.84;5110669;28;20020;-66
2022/10/23 06:04:19;;;;;;;;;;;;;;;12.43;66.13;95435.84;5092712;28;20017;-67
2022/10/23 06:06:45;;;;;;;;;;;;;;;12.41;66.09;95433.50;5092628;28;20012;-67
2022/10/23 06:09:10;;;;;;;;;;;;;;;12.35;66.15;95432.06;5093110;28;20017;-67
2022/10/23 06:11:35;;;;;;;;;;;;;;;12.43;66.17;95443.84;5110021;28;20026;-67
2022/10/23 06:14:01;;;;;;;;;;;;;;;12.46;66.22;95444.03;5093096;28;20018;-67
2022/10/23 06:16:26;;;;;;;;;;;;;;;12.49;66.29;95440.75;5110840;28;20099;-67
2022/10/23 06:18:51;;;;;;;;;;;;;;;12.55;66.14;95435.28;5111136;28;20047;-67
2022/10/23 06:21:17;;;;;;;;;;;;;;;12.58;66.08;95432.75;5111114;28;20484;-67
2022/10/23 06:23:43;;;;;;;;;;;;;;;12.64;66.05;95425.41;5091769;28;20020;-67
2022/10/23 06:26:09;;;;;;;;;;;;;;;12.69;65.96;95431.41;5110497;28;20009;-67
2022/10/23 06:28:35;;;;;;;;;;;;;;;12.77;65.79;95429.84;5110982;28;20008;-67
2022/10/23 06:31:04;;;;;;;;;;;;;;;12.84;65.67;95427.50;5111005;28;20598;-68
2022/10/23 06:33:29;;;;;;;;;;;;;;;12.91;65.34;95427.84;5110868;28;20008;-67
2022/10/23 06:35:55;;;;;;;;;;;;;;;12.95;65.43;95428.81;5090914;28;20498;-67
2022/10/23 06:38:20;;;;;;;;;;;;;;;13.08;65.42;95431.63;5092397;28;20016;-67
2022/10/23 06:40:50;;;;;;;;;;;;;;;13.17;65.23;95424.44;5092133;28;20018;-68
2022/10/23 06:43:16;;;;;;;;;;;;;;;13.25;65.08;95426.34;5110920;28;20009;-68
2022/10/23 06:45:41;;;;;;;;;;;;;;;13.36;65.00;95432.16;5110439;28;20019;-68
2022/10/23 06:48:06;;;;;;;;;;;;;;;13.44;64.76;95424.16;5109782;28;20463;-68
2022/10/23 06:50:31;;;;;;;;;;;;;;;13.52;64.35;95435.94;5092192;28;20502;-68
2022/10/23 06:52:56;;;;;;;;;;;;;;;13.60;64.53;95435.16;5110105;28;20392;-68
2022/10/23 06:55:22;;;;;;;;;;;;;;;13.70;64.46;95447.41;5091956;28;20013;-68
2022/10/23 06:57:47;;;;;;;;;;;;;;;13.78;64.12;95443.94;5092216;28;20013;-66
2022/10/23 07:00:12;;;;;;;;;;;;;;;13.87;64.05;95452.75;5109584;28;20065;-67
2022/10/23 07:02:37;;;;;;;;;;;;;;;13.98;63.56;95451.31;5088438;28;20020;-67
2022/10/23 07:05:03;;;;;;;;;;;;;;;14.10;63.66;95449.88;5109279;28;20600;-68
2022/10/23 07:07:29;;;;;;;;;;;;;;;14.21;63.07;95451.09;5093484;28;20013;-68
2022/10/23 07:09:54;;;;;;;;;;;;;;;14.30;62.66;95439.28;5110550;28;20016;-68
2022/10/23 07:12:19;;;;;;;;;;;;;;;14.40;62.09;95446.16;5110466;28;20012;-68
2022/10/23 07:14:44;;;;;;;;;;;;;;;14.50;61.61;95445.84;5109411;28;20059;-68
2022/10/23 07:17:09;;;;;;;;;;;;;;;14.65;61.75;95433.03;5110060;28;20115;-67
2022/10/23 07:19:35;;;;;;;;;;;;;;;14.68;61.63;95427.81;5110607;28;20567;-68
2022/10/23 07:22:00;;;;;;;;;;;;;;;14.73;61.35;95430.31;5092257;28;20678;-70
2022/10/23 07:24:26;;;;;;;;;;;;;;;14.90;61.66;95424.09;5095045;28;20027;-69
2022/10/23 07:26:51;;;;;;;;;;;;;;;15.02;61.62;95412.66;5113989;28;20012;-66
2022/10/23 07:29:16;;;;;;;;;;;;;;;15.08;60.79;95417.50;5114291;28;20020;-71
2022/10/23 07:31:41;;;;;;;;;;;;;;;15.11;60.40;95428.69;5114537;28;20008;-67
2022/10/23 07:34:08;;;;;;;;;;;;;;;15.25;60.44;95434.56;5111692;28;20018;-70
2022/10/23 07:36:34;;;;;;;;;;;;;;;15.35;60.52;95428.81;5113981;28;20008;-75
2022/10/23 07:38:59;;;;;;;;;;;;;;;15.40;60.65;95430.53;5096375;28;20017;-72
2022/10/23 07:41:24;;;;;;;;;;;;;;;15.47;60.58;95436.94;5114468;28;20017;-69
2022/10/23 07:43:49;;;;;;;;;;;;;;;15.55;60.16;95444.13;5095367;28;20019;-69
2022/10/23 07:46:15;;;;;;;;;;;;;;;15.64;60.08;95443.31;5095552;28;20044;-68
2022/10/23 07:48:40;;;;;;;;;;;;;;;15.71;59.74;95444.31;5116373;28;20008;-68
2022/10/23 07:51:07;;;;;;;;;;;;;;;15.76;59.23;95435.28;5115115;28;20012;-71
2022/10/23 07:53:33;;;;;;;;;;;;;;;15.87;59.55;95439.16;5112720;28;20016;-68
2022/10/23 07:56:00;;;;;;;;;;;;;;;15.96;59.26;95437.16;5095279;28;20019;-70
2022/10/23 07:58:26;;;;;;;;;;;;;;;16.03;58.76;95434.75;5095755;28;20012;-72
2022/10/23 08:00:58;;;;;;;;;;;;;;;16.13;58.48;95435.44;5112666;28;20025;-74
2022/10/23 08:03:24;;;;;;;;;;;;;;;16.19;58.17;95436.78;5114118;28;20009;-73
2022/10/23 08:05:50;;;;;;;;;;;;;;;16.25;57.42;95428.19;5095217;28;20128;-73
2022/10/23 08:08:15;;;;;;;;;;;;;;;16.35;57.07;95426.97;5113781;28;20586;-74
2022/10/23 08:10:41;;;;;;;;;;;;;;;16.50;56.88;95423.66;5095369;28;20028;-72
2022/10/23 08:13:08;;;;;;;;;;;;;;;16.60;56.45;95427.78;5112965;28;20599;-72
2022/10/23 08:15:34;;;;;;;;;;;;;;;16.83;56.33;95417.41;5113266;28;20060;-68
2022/10/23 08:17:59;;;;;;;;;;;;;;;17.00;55.51;95419.09;5113553;28;20464;-70
2022/10/23 08:20:24;;;;;;;;;;;;;;;17.22;55.13;95415.13;5095377;28;20149;-71
2022/10/23 08:22:50;;;;;;;;;;;;;;;17.31;54.36;95415.78;5094988;28;20020;-68
2022/10/23 08:25:15;;;;;;;;;;;;;;;17.47;54.95;95418.56;5112287;28;20016;-68
2022/10/23 08:27:40;;;;;;;;;;;;;;;17.64;54.73;95419.03;5093868;28;20376;-68
2022/10/23 08:30:05;;;;;;;;;;;;;;;17.85;54.19;95420.78;5112464;28;20016;-68
2022/10/23 08:32:31;;;;;;;;;;;;;;;17.95;53.97;95419.50;5113661;28;20013;-68
2022/10/23 08:34:56;;;;;;;;;;;;;;;18.13;53.43;95428.84;5112364;28;20012;-67
2022/10/23 08:37:21;;;;;;;;;;;;;;;18.27;53.00;95414.97;5094842;28;20383;-67
2022/10/23 08:39:46;;;;;;;;;;;;;;;18.44;52.54;95417.34;5112077;28;20016;-68
2022/10/23 08:42:19;;;;;;;;;;;;;;;18.61;51.82;95419.66;5094532;28;20070;-68
2022/10/23 08:44:58;;;;;;;;;;;;;;;18.73;51.52;95420.72;5094748;28;20056;-70
2022/10/23 08:47:28;;;;;;;;;;;;;;;18.98;50.96;95421.31;5094687;28;20015;-69
2022/10/23 08:50:02;;;;;;;;;;;;;;;19.18;49.88;95415.63;5105531;28;20013;-68
2022/10/23 08:52:30;;;;;;;;;;;;;;;19.37;49.45;95408.72;5099654;28;20017;-68
2022/10/23 08:54:59;;;;;;;;;;;;;;;19.57;48.96;95393.31;5097073;28;20016;-67
2022/10/23 08:57:32;;;;;;;;;;;;;;;19.80;49.12;95396.09;5074216;28;20060;-68
2022/10/23 08:59:59;;;;;;;;;;;;;;;19.90;48.24;95382.03;5095556;28;20056;-71
2022/10/23 09:02:24;;;;;;;;;;;;;;;20.00;48.22;95384.13;5112674;28;20016;-67
2022/10/23 09:04:51;;;;;;;;;;;;;;;20.18;48.05;95392.56;5093886;28;20103;-68
2022/10/23 09:07:16;;;;;;;;;;;;;;;20.31;48.03;95391.25;5112032;28;20016;-66
2022/10/23 09:09:58;;;;;;;;;;;;;;;20.39;47.62;95392.16;5110959;28;20020;-66
2022/10/23 09:12:24;;;;;;;;;;;;;;;20.47;47.09;95389.25;5094068;28;20008;-71
2022/10/23 09:15:02;;;;;;;;;;;;;;;20.51;47.11;95386.59;5112168;28;20375;-69
2022/10/23 09:17:29;;;;;;;;;;;;;;;20.50;47.02;95379.63;5110462;28;20095;-68
2022/10/23 09:19:59;;;;;;;;;;;;;;;20.50;46.84;95385.81;5112395;28;20015;-66
2022/10/23 09:22:24;;;;;;;;;;;;;;;20.50;46.70;95385.81;5112546;28;20016;-67
2022/10/23 09:24:49;;;;;;;;;;;;;;;20.59;46.88;95371.28;5111533;28;20138;-67
2022/10/23 09:27:16;;;;;;;;;;;;;;;20.72;46.98;95373.41;5111239;28;20019;-69
2022/10/23 09:29:49;;;;;;;;;;;;;;;20.85;46.05;95367.81;5091697;28;20591;-68
2022/10/23 09:32:14;;;;;;;;;;;;;;;21.06;46.42;95367.34;5073804;28;20017;-67
2022/10/23 09:34:53;;;;;;;;;;;;;;;21.27;45.98;95383.84;5091656;28;20009;-69
2022/10/23 09:37:23;;;;;;;;;;;;;;;21.51;46.17;95379.94;5073505;28;20024;-67
2022/10/23 09:39:59;;;;;;;;;;;;;;;21.69;45.58;95375.50;5096636;28;20073;-67
2022/10/23 09:42:25;;;;;;;;;;;;;;;21.87;44.96;95372.25;5111194;28;20375;-68
2022/10/23 09:44:52;;;;;;;;;;;;;;;22.03;44.83;95364.66;5092227;28;20099;-67
2022/10/23 09:47:19;;;;;;;;;;;;;;;22.11;44.40;95360.94;5093818;28;20412;-67
2022/10/23 09:49:48;;;;;;;;;;;;;;;22.22;44.32;95361.78;5111785;28;20053;-67
2022/10/23 09:52:15;;;;;;;;;;;;;;;22.26;44.38;95350.97;5111012;28;20539;-67
2022/10/23 09:54:49;;;;;;;;;;;;;;;22.24;44.37;95354.06;5092220;28;20076;-67
2022/10/23 09:57:35;;;;;;;;;;;;;;;22.26;44.23;95354.47;5111671;28;20012;-67
2022/10/23 10:00:13;;;;;;;;;;;;;;;22.31;44.40;95340.56;5093448;28;20013;-67
2022/10/23 10:02:59;;;;;;;;;;;;;;;22.17;44.13;95348.59;5092469;28;20063;-67
2022/10/23 10:05:29;;;;;;;;;;;;;;;22.13;44.32;95336.16;5092203;28;20024;-67
2022/10/23 10:08:13;;;;;;;;;;;;;;;22.15;44.58;95337.34;5093198;28;20038;-67
2022/10/23 10:10:41;;;;;;;;;;;;;;;22.17;44.84;95350.53;5111298;28;20012;-67
2022/10/23 10:13:18;;;;;;;;;;;;;;;22.19;45.24;95340.84;5092332;28;20022;-68
2022/10/23 10:15:50;;;;;;;;;;;;;;;22.22;44.84;95345.53;5092653;28;20014;-67
2022/10/23 10:18:31;;;;;;;;;;;;;;;22.21;44.81;95348.59;5106333;28;20063;-68
2022/10/23 10:20:56;;;;;;;;;;;;;;;22.22;44.72;95344.78;5110885;28;20093;-67
2022/10/23 10:23:34;;;;;;;;;;;;;;;22.23;44.88;95351.75;5092833;28;20422;-67
2022/10/23 10:26:06;;;;;;;;;;;;;;;22.17;44.93;95345.88;5109838;28;20012;-67
2022/10/23 10:28:43;;;;;;;;;;;;;;;22.11;45.43;95341.97;5111037;28;20015;-67
2022/10/23 10:31:12;;;;;;;;;;;;;;;22.24;44.89;95337.81;5092828;28;20009;-67
2022/10/23 10:33:45;;;;;;;;;;;;;;;22.25;44.98;95336.66;5092772;28;20645;-68
2022/10/23 10:36:11;;;;;;;;;;;;;;;22.28;44.67;95327.00;5107883;28;20350;-67
2022/10/23 10:38:43;;;;;;;;;;;;;;;22.31;44.99;95328.94;5092333;28;20016;-67
2022/10/23 10:41:28;;;;;;;;;;;;;;;22.27;45.22;95326.22;5110738;28;20016;-67
2022/10/23 10:44:12;;;;;;;;;;;;;;;22.35;44.89;95316.22;5110429;28;20012;-68
2022/10/23 10:46:49;;;;;;;;;;;;;;;22.52;44.88;95314.78;5109968;28;20004;-69
2022/10/23 10:49:18;;;;;;;;;;;;;;;22.58;44.83;95302.47;5099902;28;20020;-70
2022/10/23 10:51:56;;;;;;;;;;;;;;;22.70;44.37;95295.94;5090717;28;20057;-67
2022/10/23 10:54:27;;;;;;;;;;;;;;;22.83;44.30;95292.56;5090547;28;20013;-66
2022/10/23 10:56:54;;;;;;;;;;;;;;;22.95;44.00;95294.19;5088394;28;20162;-66
2022/10/23 10:59:19;;;;;;;;;;;;;;;23.02;43.57;95285.31;5100767;28;20377;-66
2022/10/23 11:01:48;;;;;;;;;;;;;;;23.14;43.63;95284.22;5110497;28;20020;-67
2022/10/23 11:04:13;;;;;;;;;;;;;;;23.20;43.85;95274.53;5110166;28;20111;-67
2022/10/23 11:06:40;;;;;;;;;;;;;;;23.24;42.85;95278.06;5108902;28;20111;-66
2022/10/23 11:09:18;;;;;;;;;;;;;;;23.36;42.83;95280.41;5092057;28;20431;-67
2022/10/23 11:11:43;;;;;;;;;;;;;;;23.58;42.73;95270.38;5072835;22;20030;-66
2022/10/23 11:14:14;;;;;;;;;;;;;;;23.69;42.59;95270.44;5029927;28;20010;-64
2022/10/23 11:16:41;;;;;;;;;;;;;;;23.75;42.76;95268.91;5017963;28;20016;-66
2022/10/23 11:19:17;;;;;;;;;;;;;;;23.78;41.92;95263.47;4949362;29;20380;-66
2022/10/23 11:22:02;;;;;;;;;;;;;;;24.12;42.24;95255.75;4949249;28;20073;-66
2022/10/23 11:24:38;;;;;;;;;;;;;;;24.44;41.95;95254.22;4949098;29;20023;-66
2022/10/23 11:27:32;;;;;;;;;;;;;;;24.63;41.31;95260.03;4948528;28;20015;-66
2022/10/23 11:29:57;;;;;;;;;;;;;;;24.96;40.80;95259.94;4973131;28;20659;-66
2022/10/23 11:32:23;;;;;;;;;;;;;;;25.17;40.58;95259.88;4949214;29;20054;-67
2022/10/23 11:35:00;;;;;;;;;;;;;;;25.40;39.95;95259.41;4948534;29;20098;-66
2022/10/23 11:37:25;;;;;;;;;;;;;;;25.55;39.68;95251.94;4947597;29;20019;-67
2022/10/23 11:40:00;;;;;;;;;;;;;;;25.67;39.56;95249.53;4949218;28;20015;-67
2022/10/23 11:42:28;;;;;;;;;;;;;;;25.88;39.42;95253.31;4947525;29;20125;-66
2022/10/23 11:44:54;;;;;;;;;;;;;;;25.96;39.14;95248.59;4948309;29;20015;-66
2022/10/23 11:47:33;;;;;;;;;;;;;;;25.91;38.66;95238.91;4947802;28;20069;-67
2022/10/23 11:50:07;;;;;;;;;;;;;;;26.06;38.66;95237.63;4948570;28;20054;-68
2022/10/23 11:52:36;;;;;;;;;;;;;;;26.14;38.21;95236.38;4948530;29;20497;-66
2022/10/23 11:55:02;;;;;;;;;;;;;;;26.29;38.64;95222.63;4947858;29;20106;-66
2022/10/23 11:57:27;;;;;;;;;;;;;;;26.42;38.51;95224.47;4948475;29;20065;-66
2022/10/23 11:59:53;;;;;;;;;;;;;;;26.63;38.46;95230.91;4947671;28;20067;-64
2022/10/23 12:02:18;;;;;;;;;;;;;;;26.79;38.14;95231.13;4948300;29;20451;-66
2022/10/23 12:04:49;;;;;;;;;;;;;;;26.85;37.69;95226.75;4946860;29;20058;-66
2022/10/23 12:07:20;;;;;;;;;;;;;;;27.06;37.50;95228.47;4947650;29;20054;-66
2022/10/23 12:09:51;;;;;;;;;;;;;;;27.05;37.10;95226.94;4951115;28;20015;-66
2022/10/23 12:12:27;;;;;;;;;;;;;;;27.06;37.79;95223.00;4951460;29;20023;-66
2022/10/23 12:14:52;;;;;;;;;;;;;;;27.14;37.64;95215.56;4951148;28;20011;-67
2022/10/23 12:17:17;;;;;;;;;;;;;;;27.03;37.29;95218.38;4950894;29;20531;-66
2022/10/23 12:19:46;;;;;;;;;;;;;;;26.96;37.67;95213.75;4950508;29;20016;-66
2022/10/23 12:22:12;;;;;;;;;;;;;;;26.99;37.40;95203.22;4951437;29;20023;-66
2022/10/23 12:24:38;;;;;;;;;;;;;;;27.01;37.51;95198.13;4951528;29;20038;-65
2022/10/23 12:27:19;;;;;;;;;;;;;;;27.01;37.51;95209.03;4950301;28;20471;-67
2022/10/23 12:29:54;;;;;;;;;;;;;;;26.98;37.59;95201.69;4951684;29;20023;-66
2022/10/23 12:32:25;;;;;;;;;;;;;;;26.99;37.40;95193.09;4951588;28;20013;-66
2022/10/23 12:34:50;;;;;;;;;;;;;;;27.16;37.50;95196.78;4949876;29;20015;-66
2022/10/23 12:37:27;;;;;;;;;;;;;;;27.20;37.20;95192.84;4951543;29;20017;-68
2022/10/23 12:39:54;;;;;;;;;;;;;;;27.34;36.85;95186.41;4950805;29;20379;-65
2022/10/23 12:42:23;;;;;;;;;;;;;;;27.46;37.37;95185.09;4966155;28;20023;-66
2022/10/23 12:45:03;;;;;;;;;;;;;;;27.35;36.36;95185.22;4951066;29;20872;-66
2022/10/23 12:47:28;;;;;;;;;;;;;;;27.47;36.91;95184.66;4951387;29;20528;-66
2022/10/23 12:49:54;;;;;;;;;;;;;;;27.59;36.67;95177.88;4951618;28;20015;-66
2022/10/23 12:52:20;;;;;;;;;;;;;;;27.45;36.64;95178.06;4949740;29;20498;-66
2022/10/23 12:54:45;;;;;;;;;;;;;;;27.44;36.72;95180.03;4950976;28;20018;-65